Latest Coastal Weather Observations for Rowley Shoals

IDW60701

Issued at 7:11 pm WST Saturday 30 April 2016 (issued every 10 minutes, with the page automatically refreshed every 10 minutes)

About coastal observations | Map of coastal stations | Coastal observations for WA | Marine services | Other Formats
Station Details ID: 200713 Name: ROWLEY SHOALS Lat: -17.52 Lon: 118.95 Height: 0.0 m
Data from the previous 72 hours. | See also: Recent months at Rowley Shoals
Date/Time
WST
Temp

°C
Wind Pressure Rain
since 9am
mm
Weather Cloud Vis
km
Sea
Height
m
Swell
Dir
 
Speed
knots
Gust
knots
hPa Trend Height
m
Period
s
Dir
30/07:00pm 28.6 E 3 4 1011.5 - - - - - - - - -
30/06:30pm 28.6 SE 3 4 1011.2 - - - - - - - - -
30/06:00pm 28.6 SSE 3 4 1010.9 - - - - - - - - -
30/05:30pm 28.6 SE 4 5 1010.7 - - - - - - - - -
30/05:00pm 28.8 E 4 7 1010.5 - - - - - - - - -
30/04:30pm 28.8 ESE 4 6 1010.5 - - - - - - - - -
30/04:00pm 28.9 ESE 3 5 1010.2 - - - - - - - - -
30/03:30pm 29.0 SSE 3 4 1010.2 - - - - - - - - -
30/03:00pm 29.2 SE 4 5 1010.1 - - - - - - - - -
30/02:30pm 28.9 ESE 3 5 1009.9 - - - - - - - - -
30/02:00pm 28.9 ESE 4 6 1009.9 - - - - - - - - -
30/01:30pm 29.1 S 4 5 1010.7 - - - - - - - - -
30/01:00pm 29.2 SSW 3 5 1010.9 - - - - - - - - -
30/12:30pm 28.7 SW 3 5 1011.4 - - - - - - - - -
30/12:00pm 28.8 WSW 3 5 1011.5 - - - - - - - - -
30/11:30am 28.9 WSW 1 5 1011.9 - - - - - - - - -
30/11:00am 29.2 CALM 0 0 1012.1 - - - - - - - - -
30/10:30am 29.3 CALM 0 0 1012.7 - - - - - - - - -
30/10:00am 29.5 CALM 0 0 1012.8 - - - - - - - - -
30/09:30am 29.4 S 2 4 1013.1 - - - - - - - - -
30/09:00am 29.5 S 4 5 1012.8 - - - - - - - - -
30/08:30am 28.9 SSW 1 3 1012.7 - - - - - - - - -
30/08:00am 28.4 SSW 3 4 1012.4 - - - - - - - - -
30/07:30am 28.7 CALM 0 0 1012.3 - - - - - - - - -
30/07:00am 28.7 CALM 0 0 1012.1 - - - - - - - - -
30/06:30am 28.0 CALM 0 0 1012.1 - - - - - - - - -
30/06:00am 28.1 WSW 2 3 1011.8 - - - - - - - - -
30/05:30am 28.1 SW 4 5 1011.7 - - - - - - - - -
30/05:00am 28.1 WSW 4 5 1011.4 - - - - - - - - -
30/04:30am 28.1 W 3 4 1011.2 - - - - - - - - -
30/04:00am 28.1 W 4 6 1011.1 - - - - - - - - -
30/03:30am 28.0 CALM 0 0 1011.1 - - - - - - - - -
30/03:00am 28.1 SW 3 4 1011.0 - - - - - - - - -
30/02:30am 28.1 SSW 3 4 1011.1 - - - - - - - - -
30/02:00am 28.2 W 3 4 1011.0 - - - - - - - - -
30/01:30am 28.3 WSW 2 5 1011.1 - - - - - - - - -
30/01:00am 28.4 W 3 5 1011.2 - - - - - - - - -
30/12:30am 27.9 CALM 0 0 1011.4 - - - - - - - - -
30/12:00am 28.3 WNW 1 4 1011.6 - - - - - - - - -
 
Date/Time
WST
Temp

°C
Wind Pressure Rain
since 9am
mm
Weather Cloud Vis
km
Sea
Height
m
Swell
Dir
 
Speed
knots
Gust
knots
hPa Trend Height
m
Period
s
Dir
29/11:30pm 28.0 WSW 2 5 1011.8 - - - - - - - - -
29/11:00pm 28.1 CALM 0 0 1011.9 - - - - - - - - -
29/10:30pm 28.2 SSW 1 4 1012.0 - - - - - - - - -
29/10:00pm 28.3 WSW 3 5 1012.1 - - - - - - - - -
29/09:30pm 28.5 SW 6 7 1012.4 - - - - - - - - -
29/09:00pm 28.6 SW 6 8 1012.2 - - - - - - - - -
29/08:30pm 28.7 WSW 6 8 1012.3 - - - - - - - - -
29/08:00pm 28.7 WSW 5 7 1012.0 - - - - - - - - -
29/07:30pm 28.8 WSW 5 8 1011.8 - - - - - - - - -
29/07:00pm 28.9 WSW 5 6 1011.4 - - - - - - - - -
29/06:30pm 28.9 WSW 6 7 1011.3 - - - - - - - - -
29/06:00pm 29.1 WSW 6 8 1011.1 - - - - - - - - -
29/05:30pm 29.2 WSW 6 8 1011.0 - - - - - - - - -
29/05:00pm 29.3 WSW 6 7 1010.9 - - - - - - - - -
29/04:30pm 29.3 WSW 7 9 1010.7 - - - - - - - - -
29/04:00pm 29.5 WSW 6 8 1010.4 - - - - - - - - -
29/03:30pm 29.2 WSW 8 9 1010.3 - - - - - - - - -
29/03:00pm 29.3 W 8 11 1010.0 - - - - - - - - -
29/02:30pm 29.3 WNW 7 10 1009.9 - - - - - - - - -
29/02:00pm 29.2 WNW 9 11 1009.8 - - - - - - - - -
29/01:30pm 29.1 WNW 9 11 1010.2 - - - - - - - - -
29/01:00pm 29.3 WNW 9 11 1010.2 - - - - - - - - -
29/12:30pm 29.0 WNW 9 11 1010.8 - - - - - - - - -
29/12:00pm 28.9 WNW 10 11 1010.7 - - - - - - - - -
29/11:30am 28.8 WNW 9 12 1011.2 - - - - - - - - -
29/11:00am 28.8 WNW 9 10 1011.5 - - - - - - - - -
29/10:30am 29.0 W 9 11 1012.0 - - - - - - - - -
29/10:00am 28.9 WNW 9 10 1012.0 - - - - - - - - -
29/09:30am 28.8 WNW 9 12 1012.5 - - - - - - - - -
29/09:00am 28.8 WNW 8 10 1012.1 - - - - - - - - -
29/08:30am 28.7 WNW 9 11 1012.1 - - - - - - - - -
29/08:00am 28.7 WNW 9 11 1011.9 - - - - - - - - -
29/07:30am 28.7 WNW 9 10 1011.6 - - - - - - - - -
29/07:00am 28.6 WNW 9 11 1011.4 - - - - - - - - -
29/06:30am 28.7 WNW 8 10 1011.2 - - - - - - - - -
29/06:00am 28.7 NW 8 10 1010.9 - - - - - - - - -
29/05:30am 28.7 NW 8 10 1010.6 - - - - - - - - -
29/05:00am 28.7 WNW 9 11 1010.4 - - - - - - - - -
29/04:30am 28.7 NW 8 9 1010.5 - - - - - - - - -
29/04:00am 28.7 WNW 8 9 1010.4 - - - - - - - - -
29/03:30am 28.7 NW 8 9 1010.3 - - - - - - - - -
29/03:00am 28.7 NW 7 9 1010.3 - - - - - - - - -
29/02:30am 28.7 NW 7 8 1010.5 - - - - - - - - -
29/02:00am 28.7 NW 7 7 1010.4 - - - - - - - - -
29/01:30am 28.7 NW 6 7 1010.7 - - - - - - - - -
29/01:00am 28.7 NW 5 7 1010.7 - - - - - - - - -
29/12:30am 28.7 NW 3 4 1011.0 - - - - - - - - -
29/12:00am 28.7 NW 4 5 1011.0 - - - - - - - - -
 
Date/Time
WST
Temp

°C
Wind Pressure Rain
since 9am
mm
Weather Cloud Vis
km
Sea
Height
m
Swell
Dir
 
Speed
knots
Gust
knots
hPa Trend Height
m
Period
s
Dir
28/11:30pm 28.8 NW 5 6 1011.4 - - - - - - - - -
28/11:00pm 28.8 NW 4 5 1011.4 - - - - - - - - -
28/10:30pm 28.7 WNW 2 3 1011.7 - - - - - - - - -
28/10:00pm 28.9 W 3 5 1011.6 - - - - - - - - -
28/09:30pm 29.0 WSW 2 3 1011.8 - - - - - - - - -
28/09:00pm 29.1 SW 4 5 1011.8 - - - - - - - - -
28/08:30pm 29.3 SW 5 6 1011.7 - - - - - - - - -
28/08:00pm 29.4 SW 5 6 1011.4 - - - - - - - - -
28/07:30pm 29.6 SW 6 8 1011.2 - - - - - - - - -
28/07:00pm 29.6 SW 7 8 1010.9 - - - - - - - - -
28/06:30pm 29.7 SW 6 7 1010.6 - - - - - - - - -
28/06:00pm 29.8 WSW 7 8 1010.3 - - - - - - - - -
28/05:30pm 29.9 WSW 6 7 1010.0 - - - - - - - - -
28/05:00pm 30.0 WSW 6 7 1009.6 - - - - - - - - -
28/04:30pm 30.1 WSW 6 7 1009.5 - - - - - - - - -
28/04:00pm 30.1 WSW 5 7 1009.4 - - - - - - - - -
28/03:30pm 29.9 WSW 7 8 1009.3 - - - - - - - - -
28/03:00pm 29.9 WSW 8 9 1009.2 - - - - - - - - -
28/02:30pm 29.3 SW 9 10 1009.1 - - - - - - - - -
28/02:00pm 29.1 SW 9 11 1009.2 - - - - - - - - -
28/01:30pm 29.1 SW 10 12 1009.6 - - - - - - - - -
28/01:00pm 29.0 SW 11 13 1009.7 - - - - - - - - -
28/12:30pm 29.1 SW 11 12 1010.1 - - - - - - - - -
28/12:00pm 29.0 SW 11 13 1010.2 - - - - - - - - -
28/11:30am 29.0 SW 10 12 1010.8 - - - - - - - - -
28/11:00am 29.0 WSW 10 12 1011.0 - - - - - - - - -
28/10:30am 29.0 WSW 10 13 1011.7 - - - - - - - - -
28/10:00am 29.0 WSW 11 13 1011.9 - - - - - - - - -
28/09:30am 28.9 WSW 10 11 1012.0 - - - - - - - - -
28/09:00am 29.0 WSW 10 12 1011.9 - - - - - - - - -
28/08:30am 28.8 WSW 11 12 1011.7 - - - - - - - - -
28/08:00am 28.7 W 11 14 1011.3 - - - - - - - - -
28/07:30am 28.6 W 11 13 1011.2 - - - - - - - - -
28/07:00am 28.6 W 11 14 1010.9 - - - - - - - - -
28/06:30am 28.7 W 11 12 1010.4 - - - - - - - - -
28/06:00am 28.5 W 10 13 1010.2 - - - - - - - - -
28/05:30am 28.5 W 11 13 1010.0 - - - - - - - - -
28/05:00am 28.5 W 11 13 1009.8 - - - - - - - - -
28/04:30am 28.5 W 11 13 1009.7 - - - - - - - - -
28/04:00am 28.4 W 11 13 1009.5 - - - - - - - - -
28/03:30am 28.6 WNW 9 11 1009.6 - - - - - - - - -
28/03:00am 28.4 WNW 8 9 1009.6 - - - - - - - - -
28/02:30am 28.6 WNW 7 9 1009.7 - - - - - - - - -
28/02:00am 28.7 NW 7 9 1009.8 - - - - - - - - -
28/01:30am 28.7 WNW 6 7 1010.1 - - - - - - - - -
28/01:00am 28.6 WNW 6 7 1009.9 - - - - - - - - -
28/12:30am 28.8 WNW 6 7 1010.5 - - - - - - - - -
28/12:00am 28.7 W 7 8 1010.5 - - - - - - - - -
 
Date/Time
WST
Temp

°C
Wind Pressure Rain
since 9am
mm
Weather Cloud Vis
km
Sea
Height
m
Swell
Dir
 
Speed
knots
Gust
knots
hPa Trend Height
m
Period
s
Dir
27/11:30pm 28.6 NW 3 5 1010.8 - - - - - - - - -
27/11:00pm 28.6 N 3 4 1010.8 - - - - - - - - -
27/10:30pm 28.4 N 3 5 1011.0 - - - - - - - - -
27/10:00pm 28.3 CALM 0 0 1010.9 - - - - - - - - -
27/09:30pm 28.3 CALM 0 0 1011.4 - - - - - - - - -
27/09:00pm 28.3 CALM 0 0 1011.4 - - - - - - - - -
27/08:30pm 28.5 CALM 0 0 1011.4 - - - - - - - - -
27/08:00pm 28.6 CALM 0 3 1011.2 - - - - - - - - -
27/07:30pm 28.7 CALM 0 3 1010.7 - - - - - - - - -

Other Formats:

Comma delimited format used in spreadsheet applications
http://www.bom.gov.au/fwo/IDW60701/IDW60701.94207.axf

JavaScript Object Notation format (JSON) in row-major order
http://www.bom.gov.au/fwo/IDW60701/IDW60701.94207.json